sensor_id;sensor_type;location;lat;lon;timestamp;P1;durP1;ratioP1;P2;durP2;ratioP2
22571;SDS011;11452;53.368;14.658;2022-10-26T00:01:58;8.27;;;6.00;;
22571;SDS011;11452;53.368;14.658;2022-10-26T00:07:04;10.37;;;5.57;;
22571;SDS011;11452;53.368;14.658;2022-10-26T00:12:10;7.77;;;5.30;;
22571;SDS011;11452;53.368;14.658;2022-10-26T00:17:15;7.63;;;5.90;;
22571;SDS011;11452;53.368;14.658;2022-10-26T00:22:21;6.90;;;5.93;;
22571;SDS011;11452;53.368;14.658;2022-10-26T00:27:27;7.73;;;5.37;;
22571;SDS011;11452;53.368;14.658;2022-10-26T00:32:32;6.60;;;5.67;;
22571;SDS011;11452;53.368;14.658;2022-10-26T00:37:39;8.20;;;5.70;;
22571;SDS011;11452;53.368;14.658;2022-10-26T00:42:44;7.97;;;6.03;;
22571;SDS011;11452;53.368;14.658;2022-10-26T00:47:55;7.00;;;6.10;;
22571;SDS011;11452;53.368;14.658;2022-10-26T00:53:00;9.00;;;6.90;;
22571;SDS011;11452;53.368;14.658;2022-10-26T00:58:08;11.70;;;7.80;;
22571;SDS011;11452;53.368;14.658;2022-10-26T01:03:15;8.17;;;6.43;;
22571;SDS011;11452;53.368;14.658;2022-10-26T01:08:21;10.63;;;7.10;;
22571;SDS011;11452;53.368;14.658;2022-10-26T01:13:29;9.43;;;6.33;;
22571;SDS011;11452;53.368;14.658;2022-10-26T01:18:54;14.87;;;6.37;;
22571;SDS011;11452;53.368;14.658;2022-10-26T01:34:56;9.20;;;6.37;;
22571;SDS011;11452;53.368;14.658;2022-10-26T01:40:08;9.90;;;6.57;;
22571;SDS011;11452;53.368;14.658;2022-10-26T01:45:19;9.97;;;6.90;;
22571;SDS011;11452;53.368;14.658;2022-10-26T01:50:25;9.40;;;6.87;;
22571;SDS011;11452;53.368;14.658;2022-10-26T02:00:46;7.53;;;6.13;;
22571;SDS011;11452;53.368;14.658;2022-10-26T02:06:02;8.10;;;6.77;;
22571;SDS011;11452;53.368;14.658;2022-10-26T02:11:09;12.60;;;7.83;;
22571;SDS011;11452;53.368;14.658;2022-10-26T02:16:33;8.97;;;6.07;;
22571;SDS011;11452;53.368;14.658;2022-10-26T02:21:40;9.73;;;7.23;;
22571;SDS011;11452;53.368;14.658;2022-10-26T02:26:47;9.70;;;7.27;;
22571;SDS011;11452;53.368;14.658;2022-10-26T02:31:55;9.63;;;7.27;;
22571;SDS011;11452;53.368;14.658;2022-10-26T02:37:01;9.70;;;7.33;;
22571;SDS011;11452;53.368;14.658;2022-10-26T02:42:10;8.83;;;7.37;;
22571;SDS011;11452;53.368;14.658;2022-10-26T02:47:17;11.10;;;7.70;;
22571;SDS011;11452;53.368;14.658;2022-10-26T02:57:41;9.83;;;7.53;;
22571;SDS011;11452;53.368;14.658;2022-10-26T03:02:49;8.97;;;6.50;;
22571;SDS011;11452;53.368;14.658;2022-10-26T03:08:01;14.77;;;7.90;;
22571;SDS011;11452;53.368;14.658;2022-10-26T03:13:07;11.30;;;6.93;;
22571;SDS011;11452;53.368;14.658;2022-10-26T03:18:13;10.17;;;6.33;;
22571;SDS011;11452;53.368;14.658;2022-10-26T03:23:19;9.17;;;6.80;;
22571;SDS011;11452;53.368;14.658;2022-10-26T03:28:24;11.77;;;6.97;;
22571;SDS011;11452;53.368;14.658;2022-10-26T03:33:30;8.57;;;7.30;;
22571;SDS011;11452;53.368;14.658;2022-10-26T03:38:35;9.47;;;6.27;;
22571;SDS011;11452;53.368;14.658;2022-10-26T03:43:41;8.83;;;6.53;;
22571;SDS011;11452;53.368;14.658;2022-10-26T03:48:46;10.33;;;6.73;;
22571;SDS011;11452;53.368;14.658;2022-10-26T03:53:52;11.50;;;7.10;;
22571;SDS011;11452;53.368;14.658;2022-10-26T03:58:57;11.93;;;7.33;;
22571;SDS011;11452;53.368;14.658;2022-10-26T04:04:03;9.50;;;7.57;;
22571;SDS011;11452;53.368;14.658;2022-10-26T04:09:09;12.20;;;9.43;;
22571;SDS011;11452;53.368;14.658;2022-10-26T04:14:14;11.13;;;8.13;;
22571;SDS011;11452;53.368;14.658;2022-10-26T04:19:20;10.43;;;7.57;;
22571;SDS011;11452;53.368;14.658;2022-10-26T04:24:25;10.13;;;7.87;;
22571;SDS011;11452;53.368;14.658;2022-10-26T04:29:31;10.03;;;7.27;;
22571;SDS011;11452;53.368;14.658;2022-10-26T04:34:36;9.53;;;7.40;;
22571;SDS011;11452;53.368;14.658;2022-10-26T04:39:42;11.63;;;8.53;;
22571;SDS011;11452;53.368;14.658;2022-10-26T04:44:47;11.47;;;7.97;;
22571;SDS011;11452;53.368;14.658;2022-10-26T04:49:53;12.67;;;7.30;;
22571;SDS011;11452;53.368;14.658;2022-10-26T04:54:58;10.13;;;7.80;;
22571;SDS011;11452;53.368;14.658;2022-10-26T05:00:04;10.30;;;7.70;;
22571;SDS011;11452;53.368;14.658;2022-10-26T05:05:10;8.67;;;7.30;;
22571;SDS011;11452;53.368;14.658;2022-10-26T05:10:17;16.17;;;8.83;;
22571;SDS011;11452;53.368;14.658;2022-10-26T05:15:23;11.63;;;8.57;;
22571;SDS011;11452;53.368;14.658;2022-10-26T05:20:29;13.13;;;9.00;;
22571;SDS011;11452;53.368;14.658;2022-10-26T05:25:37;13.47;;;9.20;;
22571;SDS011;11452;53.368;14.658;2022-10-26T05:30:43;13.30;;;9.37;;
22571;SDS011;11452;53.368;14.658;2022-10-26T05:35:52;12.77;;;9.53;;
22571;SDS011;11452;53.368;14.658;2022-10-26T05:40:59;17.33;;;10.27;;
22571;SDS011;11452;53.368;14.658;2022-10-26T05:46:05;17.57;;;9.37;;
22571;SDS011;11452;53.368;14.658;2022-10-26T05:51:10;14.03;;;9.67;;
22571;SDS011;11452;53.368;14.658;2022-10-26T05:56:20;13.50;;;9.47;;
22571;SDS011;11452;53.368;14.658;2022-10-26T06:07:15;14.23;;;8.80;;
22571;SDS011;11452;53.368;14.658;2022-10-26T06:12:25;13.30;;;9.60;;
22571;SDS011;11452;53.368;14.658;2022-10-26T06:22:59;13.87;;;8.77;;
22571;SDS011;11452;53.368;14.658;2022-10-26T06:33:52;12.40;;;9.60;;
22571;SDS011;11452;53.368;14.658;2022-10-26T06:39:03;14.20;;;10.23;;
22571;SDS011;11452;53.368;14.658;2022-10-26T06:44:18;14.27;;;9.57;;
22571;SDS011;11452;53.368;14.658;2022-10-26T06:54:50;15.77;;;8.87;;
22571;SDS011;11452;53.368;14.658;2022-10-26T07:00:02;19.63;;;9.40;;
22571;SDS011;11452;53.368;14.658;2022-10-26T07:05:12;12.33;;;8.97;;
22571;SDS011;11452;53.368;14.658;2022-10-26T07:10:18;13.80;;;9.87;;
22571;SDS011;11452;53.368;14.658;2022-10-26T07:15:23;14.00;;;8.50;;
22571;SDS011;11452;53.368;14.658;2022-10-26T07:20:29;13.30;;;8.83;;
22571;SDS011;11452;53.368;14.658;2022-10-26T07:25:35;11.67;;;8.00;;
22571;SDS011;11452;53.368;14.658;2022-10-26T07:30:43;11.70;;;8.30;;
22571;SDS011;11452;53.368;14.658;2022-10-26T07:35:48;13.33;;;7.20;;
22571;SDS011;11452;53.368;14.658;2022-10-26T07:40:55;12.17;;;8.13;;
22571;SDS011;11452;53.368;14.658;2022-10-26T07:46:00;12.13;;;8.10;;
22571;SDS011;11452;53.368;14.658;2022-10-26T07:51:06;10.70;;;7.77;;
22571;SDS011;11452;53.368;14.658;2022-10-26T07:56:12;9.87;;;6.90;;
22571;SDS011;11452;53.368;14.658;2022-10-26T08:01:17;11.40;;;7.47;;
22571;SDS011;11452;53.368;14.658;2022-10-26T08:06:24;9.50;;;6.50;;
22571;SDS011;11452;53.368;14.658;2022-10-26T08:11:29;11.53;;;6.53;;
22571;SDS011;11452;53.368;14.658;2022-10-26T08:16:35;9.03;;;6.50;;
22571;SDS011;11452;53.368;14.658;2022-10-26T08:21:43;14.13;;;7.23;;
22571;SDS011;11452;53.368;14.658;2022-10-26T08:26:49;10.03;;;6.57;;
22571;SDS011;11452;53.368;14.658;2022-10-26T08:31:55;9.80;;;6.40;;
22571;SDS011;11452;53.368;14.658;2022-10-26T08:37:00;10.17;;;6.77;;
22571;SDS011;11452;53.368;14.658;2022-10-26T08:42:10;8.57;;;6.53;;
22571;SDS011;11452;53.368;14.658;2022-10-26T08:47:21;9.87;;;6.83;;
22571;SDS011;11452;53.368;14.658;2022-10-26T08:52:35;9.47;;;6.57;;
22571;SDS011;11452;53.368;14.658;2022-10-26T08:57:43;8.60;;;6.40;;
22571;SDS011;11452;53.368;14.658;2022-10-26T09:02:52;8.90;;;6.30;;
22571;SDS011;11452;53.368;14.658;2022-10-26T09:13:27;7.53;;;5.67;;
22571;SDS011;11452;53.368;14.658;2022-10-26T09:18:53;10.27;;;5.50;;
22571;SDS011;11452;53.368;14.658;2022-10-26T09:24:18;8.40;;;5.10;;
22571;SDS011;11452;53.368;14.658;2022-10-26T09:29:43;7.27;;;4.07;;
22571;SDS011;11452;53.368;14.658;2022-10-26T09:34:51;7.23;;;4.60;;
22571;SDS011;11452;53.368;14.658;2022-10-26T09:40:09;5.60;;;4.50;;
22571;SDS011;11452;53.368;14.658;2022-10-26T09:45:15;7.43;;;4.13;;
22571;SDS011;11452;53.368;14.658;2022-10-26T09:50:47;6.43;;;4.30;;
22571;SDS011;11452;53.368;14.658;2022-10-26T09:55:46;5.53;;;4.30;;
22571;SDS011;11452;53.368;14.658;2022-10-26T10:00:54;4.47;;;3.57;;
22571;SDS011;11452;53.368;14.658;2022-10-26T10:06:14;6.60;;;4.63;;
22571;SDS011;11452;53.368;14.658;2022-10-26T10:11:21;8.30;;;4.97;;
22571;SDS011;11452;53.368;14.658;2022-10-26T10:16:28;7.97;;;5.13;;
22571;SDS011;11452;53.368;14.658;2022-10-26T10:21:35;7.67;;;4.70;;
22571;SDS011;11452;53.368;14.658;2022-10-26T10:27:02;8.20;;;4.67;;
22571;SDS011;11452;53.368;14.658;2022-10-26T10:32:19;5.93;;;4.73;;
22571;SDS011;11452;53.368;14.658;2022-10-26T10:37:30;6.50;;;4.73;;
22571;SDS011;11452;53.368;14.658;2022-10-26T10:42:41;5.97;;;4.03;;
22571;SDS011;11452;53.368;14.658;2022-10-26T10:53:30;6.17;;;4.90;;
22571;SDS011;11452;53.368;14.658;2022-10-26T10:58:43;7.83;;;4.53;;
22571;SDS011;11452;53.368;14.658;2022-10-26T11:09:13;7.47;;;4.07;;
22571;SDS011;11452;53.368;14.658;2022-10-26T11:14:17;5.10;;;3.17;;
22571;SDS011;11452;53.368;14.658;2022-10-26T11:19:29;4.60;;;3.23;;
22571;SDS011;11452;53.368;14.658;2022-10-26T11:30:23;4.43;;;3.10;;
22571;SDS011;11452;53.368;14.658;2022-10-26T11:35:17;3.30;;;2.37;;
22571;SDS011;11452;53.368;14.658;2022-10-26T11:40:34;5.80;;;3.17;;
22571;SDS011;11452;53.368;14.658;2022-10-26T11:46:00;3.23;;;2.93;;
22571;SDS011;11452;53.368;14.658;2022-10-26T11:51:04;3.17;;;2.13;;
22571;SDS011;11452;53.368;14.658;2022-10-26T11:56:16;2.50;;;2.13;;
22571;SDS011;11452;53.368;14.658;2022-10-26T12:01:24;5.03;;;2.37;;
22571;SDS011;11452;53.368;14.658;2022-10-26T12:06:31;4.27;;;2.20;;
22571;SDS011;11452;53.368;14.658;2022-10-26T12:16:53;3.97;;;2.73;;
22571;SDS011;11452;53.368;14.658;2022-10-26T12:22:02;4.17;;;2.30;;
22571;SDS011;11452;53.368;14.658;2022-10-26T12:27:28;3.93;;;2.70;;
22571;SDS011;11452;53.368;14.658;2022-10-26T12:37:45;5.60;;;2.47;;
22571;SDS011;11452;53.368;14.658;2022-10-26T12:42:51;4.53;;;2.43;;
22571;SDS011;11452;53.368;14.658;2022-10-26T12:48:00;3.40;;;2.33;;
22571;SDS011;11452;53.368;14.658;2022-10-26T12:53:09;4.60;;;1.97;;
22571;SDS011;11452;53.368;14.658;2022-10-26T13:08:52;2.83;;;2.63;;
22571;SDS011;11452;53.368;14.658;2022-10-26T13:14:01;3.77;;;2.47;;
22571;SDS011;11452;53.368;14.658;2022-10-26T13:19:21;2.67;;;2.33;;
22571;SDS011;11452;53.368;14.658;2022-10-26T13:24:27;5.63;;;2.80;;
22571;SDS011;11452;53.368;14.658;2022-10-26T13:35:12;3.97;;;3.13;;
22571;SDS011;11452;53.368;14.658;2022-10-26T13:40:23;4.80;;;3.17;;
22571;SDS011;11452;53.368;14.658;2022-10-26T13:45:31;7.50;;;5.12;;
22571;SDS011;11452;53.368;14.658;2022-10-26T13:51:02;5.57;;;3.53;;
22571;SDS011;11452;53.368;14.658;2022-10-26T13:55:57;5.87;;;4.07;;
22571;SDS011;11452;53.368;14.658;2022-10-26T14:01:14;3.33;;;3.00;;
22571;SDS011;11452;53.368;14.658;2022-10-26T14:06:39;5.33;;;3.50;;
22571;SDS011;11452;53.368;14.658;2022-10-26T14:16:55;4.83;;;3.10;;
22571;SDS011;11452;53.368;14.658;2022-10-26T14:22:01;5.33;;;2.83;;
22571;SDS011;11452;53.368;14.658;2022-10-26T14:27:17;4.37;;;3.27;;
22571;SDS011;11452;53.368;14.658;2022-10-26T14:32:28;3.77;;;3.40;;
22571;SDS011;11452;53.368;14.658;2022-10-26T14:37:44;4.63;;;2.83;;
22571;SDS011;11452;53.368;14.658;2022-10-26T14:42:51;3.47;;;3.17;;
22571;SDS011;11452;53.368;14.658;2022-10-26T14:48:00;9.07;;;2.70;;
22571;SDS011;11452;53.368;14.658;2022-10-26T14:53:13;2.67;;;2.47;;
22571;SDS011;11452;53.368;14.658;2022-10-26T14:58:29;3.90;;;2.93;;
22571;SDS011;11452;53.368;14.658;2022-10-26T15:03:31;3.13;;;2.83;;
22571;SDS011;11452;53.368;14.658;2022-10-26T15:08:41;4.27;;;2.93;;
22571;SDS011;11452;53.368;14.658;2022-10-26T15:13:52;3.03;;;2.80;;
22571;SDS011;11452;53.368;14.658;2022-10-26T15:19:05;4.00;;;3.57;;
22571;SDS011;11452;53.368;14.658;2022-10-26T15:29:45;4.60;;;3.30;;
22571;SDS011;11452;53.368;14.658;2022-10-26T15:35:14;6.13;;;3.97;;
22571;SDS011;11452;53.368;14.658;2022-10-26T15:40:21;6.97;;;3.80;;
22571;SDS011;11452;53.368;14.658;2022-10-26T15:45:30;5.33;;;3.03;;
22571;SDS011;11452;53.368;14.658;2022-10-26T15:50:38;4.30;;;3.13;;
22571;SDS011;11452;53.368;14.658;2022-10-26T15:55:44;4.20;;;2.90;;
22571;SDS011;11452;53.368;14.658;2022-10-26T16:00:50;4.30;;;3.90;;
22571;SDS011;11452;53.368;14.658;2022-10-26T16:05:56;3.93;;;2.73;;
22571;SDS011;11452;53.368;14.658;2022-10-26T16:11:05;4.60;;;3.00;;
22571;SDS011;11452;53.368;14.658;2022-10-26T16:16:13;5.10;;;2.83;;
22571;SDS011;11452;53.368;14.658;2022-10-26T16:21:21;6.77;;;2.97;;
22571;SDS011;11452;53.368;14.658;2022-10-26T16:26:28;4.87;;;3.23;;
22571;SDS011;11452;53.368;14.658;2022-10-26T16:31:33;3.50;;;2.90;;
22571;SDS011;11452;53.368;14.658;2022-10-26T16:36:39;3.33;;;2.90;;
22571;SDS011;11452;53.368;14.658;2022-10-26T16:41:47;5.20;;;3.00;;
22571;SDS011;11452;53.368;14.658;2022-10-26T16:46:53;7.40;;;3.23;;
22571;SDS011;11452;53.368;14.658;2022-10-26T16:51:58;4.07;;;3.10;;
22571;SDS011;11452;53.368;14.658;2022-10-26T16:57:04;5.77;;;3.23;;
22571;SDS011;11452;53.368;14.658;2022-10-26T17:02:12;3.67;;;2.60;;
22571;SDS011;11452;53.368;14.658;2022-10-26T17:07:18;3.53;;;3.10;;
22571;SDS011;11452;53.368;14.658;2022-10-26T17:12:23;4.30;;;3.07;;
22571;SDS011;11452;53.368;14.658;2022-10-26T17:17:29;4.77;;;3.00;;
22571;SDS011;11452;53.368;14.658;2022-10-26T17:22:35;4.03;;;2.90;;
22571;SDS011;11452;53.368;14.658;2022-10-26T17:27:40;6.87;;;2.90;;
22571;SDS011;11452;53.368;14.658;2022-10-26T17:32:48;5.23;;;3.33;;
22571;SDS011;11452;53.368;14.658;2022-10-26T17:37:55;3.70;;;3.03;;
22571;SDS011;11452;53.368;14.658;2022-10-26T17:43:00;5.53;;;2.73;;
22571;SDS011;11452;53.368;14.658;2022-10-26T17:48:06;4.97;;;3.40;;
22571;SDS011;11452;53.368;14.658;2022-10-26T17:53:11;3.97;;;3.07;;
22571;SDS011;11452;53.368;14.658;2022-10-26T17:58:18;3.60;;;2.67;;
22571;SDS011;11452;53.368;14.658;2022-10-26T18:03:23;5.33;;;3.03;;
22571;SDS011;11452;53.368;14.658;2022-10-26T18:08:29;3.10;;;2.80;;
22571;SDS011;11452;53.368;14.658;2022-10-26T18:13:36;4.93;;;3.63;;
22571;SDS011;11452;53.368;14.658;2022-10-26T18:18:41;4.07;;;2.80;;
22571;SDS011;11452;53.368;14.658;2022-10-26T18:23:55;3.40;;;2.90;;
22571;SDS011;11452;53.368;14.658;2022-10-26T18:29:00;4.03;;;3.33;;
22571;SDS011;11452;53.368;14.658;2022-10-26T18:34:08;3.83;;;3.10;;
22571;SDS011;11452;53.368;14.658;2022-10-26T18:39:14;4.00;;;3.60;;
22571;SDS011;11452;53.368;14.658;2022-10-26T18:44:19;4.47;;;2.73;;
22571;SDS011;11452;53.368;14.658;2022-10-26T18:49:25;5.80;;;3.33;;
22571;SDS011;11452;53.368;14.658;2022-10-26T18:54:31;3.77;;;3.17;;
22571;SDS011;11452;53.368;14.658;2022-10-26T18:59:37;4.53;;;3.37;;
22571;SDS011;11452;53.368;14.658;2022-10-26T19:04:42;5.23;;;3.00;;
22571;SDS011;11452;53.368;14.658;2022-10-26T19:09:48;4.03;;;3.00;;
22571;SDS011;11452;53.368;14.658;2022-10-26T19:14:53;3.47;;;3.10;;
22571;SDS011;11452;53.368;14.658;2022-10-26T19:19:59;5.77;;;3.40;;
22571;SDS011;11452;53.368;14.658;2022-10-26T19:25:05;10.03;;;6.23;;
22571;SDS011;11452;53.368;14.658;2022-10-26T19:30:11;8.93;;;5.60;;
22571;SDS011;11452;53.368;14.658;2022-10-26T19:35:18;7.13;;;5.33;;
22571;SDS011;11452;53.368;14.658;2022-10-26T19:40:24;9.27;;;7.57;;
22571;SDS011;11452;53.368;14.658;2022-10-26T19:45:29;8.87;;;6.37;;
22571;SDS011;11452;53.368;14.658;2022-10-26T19:50:35;4.30;;;3.90;;
22571;SDS011;11452;53.368;14.658;2022-10-26T19:55:43;6.03;;;3.73;;
22571;SDS011;11452;53.368;14.658;2022-10-26T20:00:50;5.10;;;3.60;;
22571;SDS011;11452;53.368;14.658;2022-10-26T20:06:00;4.20;;;3.40;;
22571;SDS011;11452;53.368;14.658;2022-10-26T20:11:09;8.23;;;5.23;;
22571;SDS011;11452;53.368;14.658;2022-10-26T20:16:16;7.90;;;5.97;;
22571;SDS011;11452;53.368;14.658;2022-10-26T20:21:22;7.33;;;4.83;;
22571;SDS011;11452;53.368;14.658;2022-10-26T20:26:27;11.87;;;5.80;;
22571;SDS011;11452;53.368;14.658;2022-10-26T20:31:33;8.87;;;5.33;;
22571;SDS011;11452;53.368;14.658;2022-10-26T20:36:38;9.17;;;7.00;;
22571;SDS011;11452;53.368;14.658;2022-10-26T20:41:44;6.37;;;5.43;;
22571;SDS011;11452;53.368;14.658;2022-10-26T20:46:51;7.60;;;5.40;;
22571;SDS011;11452;53.368;14.658;2022-10-26T20:52:03;7.63;;;4.70;;
22571;SDS011;11452;53.368;14.658;2022-10-26T20:57:08;7.53;;;5.13;;
22571;SDS011;11452;53.368;14.658;2022-10-26T21:02:16;8.50;;;6.77;;
22571;SDS011;11452;53.368;14.658;2022-10-26T21:07:23;11.17;;;7.57;;
22571;SDS011;11452;53.368;14.658;2022-10-26T21:12:29;11.80;;;8.60;;
22571;SDS011;11452;53.368;14.658;2022-10-26T21:17:34;10.17;;;8.60;;
22571;SDS011;11452;53.368;14.658;2022-10-26T21:22:40;12.53;;;9.43;;
22571;SDS011;11452;53.368;14.658;2022-10-26T21:27:45;12.43;;;9.17;;
22571;SDS011;11452;53.368;14.658;2022-10-26T21:32:52;12.10;;;9.33;;
22571;SDS011;11452;53.368;14.658;2022-10-26T21:37:57;12.17;;;8.57;;
22571;SDS011;11452;53.368;14.658;2022-10-26T21:43:03;11.17;;;9.47;;
22571;SDS011;11452;53.368;14.658;2022-10-26T21:48:08;11.80;;;9.30;;
22571;SDS011;11452;53.368;14.658;2022-10-26T21:53:14;11.07;;;8.87;;
22571;SDS011;11452;53.368;14.658;2022-10-26T21:58:20;9.20;;;7.13;;
22571;SDS011;11452;53.368;14.658;2022-10-26T22:03:25;7.90;;;7.10;;
22571;SDS011;11452;53.368;14.658;2022-10-26T22:08:31;9.03;;;7.40;;
22571;SDS011;11452;53.368;14.658;2022-10-26T22:13:37;9.53;;;6.90;;
22571;SDS011;11452;53.368;14.658;2022-10-26T22:18:43;8.33;;;6.67;;
22571;SDS011;11452;53.368;14.658;2022-10-26T22:23:49;8.93;;;8.03;;
22571;SDS011;11452;53.368;14.658;2022-10-26T22:28:55;10.63;;;8.33;;
22571;SDS011;11452;53.368;14.658;2022-10-26T22:34:07;9.43;;;8.03;;
22571;SDS011;11452;53.368;14.658;2022-10-26T22:39:10;11.33;;;8.67;;
22571;SDS011;11452;53.368;14.658;2022-10-26T22:44:16;11.93;;;8.53;;
22571;SDS011;11452;53.368;14.658;2022-10-26T22:49:22;12.53;;;9.50;;
22571;SDS011;11452;53.368;14.658;2022-10-26T22:54:27;10.60;;;9.30;;
22571;SDS011;11452;53.368;14.658;2022-10-26T22:59:33;13.70;;;10.47;;
22571;SDS011;11452;53.368;14.658;2022-10-26T23:04:38;11.50;;;9.43;;
22571;SDS011;11452;53.368;14.658;2022-10-26T23:09:44;17.93;;;10.60;;
22571;SDS011;11452;53.368;14.658;2022-10-26T23:14:49;13.97;;;8.37;;
22571;SDS011;11452;53.368;14.658;2022-10-26T23:19:55;9.07;;;7.47;;
22571;SDS011;11452;53.368;14.658;2022-10-26T23:25:00;10.67;;;8.17;;
22571;SDS011;11452;53.368;14.658;2022-10-26T23:30:06;6.90;;;6.20;;
22571;SDS011;11452;53.368;14.658;2022-10-26T23:35:13;8.50;;;6.70;;
22571;SDS011;11452;53.368;14.658;2022-10-26T23:40:18;9.07;;;5.90;;
22571;SDS011;11452;53.368;14.658;2022-10-26T23:45:24;8.27;;;5.93;;
22571;SDS011;11452;53.368;14.658;2022-10-26T23:50:29;7.27;;;5.30;;
22571;SDS011;11452;53.368;14.658;2022-10-26T23:55:35;11.77;;;6.43;;
